sensor_id;sensor_type;location;lat;lon;timestamp;P1;durP1;ratioP1;P2;durP2;ratioP2
30380;SDS011;17169;50.966;11.038;2023-05-10T00:01:31;6.35;;;2.53;;
30380;SDS011;17169;50.966;11.038;2023-05-10T00:04:33;5.63;;;2.47;;
30380;SDS011;17169;50.966;11.038;2023-05-10T00:07:35;5.88;;;2.58;;
30380;SDS011;17169;50.966;11.038;2023-05-10T00:10:39;7.53;;;2.70;;
30380;SDS011;17169;50.966;11.038;2023-05-10T00:13:41;6.13;;;2.50;;
30380;SDS011;17169;50.966;11.038;2023-05-10T00:16:44;6.85;;;2.55;;
30380;SDS011;17169;50.966;11.038;2023-05-10T00:19:46;7.15;;;2.40;;
30380;SDS011;17169;50.966;11.038;2023-05-10T00:22:49;4.30;;;2.50;;
30380;SDS011;17169;50.966;11.038;2023-05-10T00:25:52;4.07;;;2.42;;
30380;SDS011;17169;50.966;11.038;2023-05-10T00:28:55;5.35;;;2.28;;
30380;SDS011;17169;50.966;11.038;2023-05-10T00:31:57;5.32;;;2.53;;
30380;SDS011;17169;50.966;11.038;2023-05-10T00:34:59;4.32;;;2.35;;
30380;SDS011;17169;50.966;11.038;2023-05-10T00:38:02;9.77;;;2.30;;
30380;SDS011;17169;50.966;11.038;2023-05-10T00:41:06;3.55;;;2.47;;
30380;SDS011;17169;50.966;11.038;2023-05-10T00:44:08;8.82;;;2.55;;
30380;SDS011;17169;50.966;11.038;2023-05-10T00:47:10;5.07;;;2.28;;
30380;SDS011;17169;50.966;11.038;2023-05-10T00:50:13;6.20;;;2.30;;
30380;SDS011;17169;50.966;11.038;2023-05-10T00:53:17;5.32;;;2.47;;
30380;SDS011;17169;50.966;11.038;2023-05-10T00:56:21;4.32;;;2.30;;
30380;SDS011;17169;50.966;11.038;2023-05-10T00:59:25;5.85;;;2.40;;
30380;SDS011;17169;50.966;11.038;2023-05-10T01:02:27;3.63;;;2.30;;
30380;SDS011;17169;50.966;11.038;2023-05-10T01:05:30;3.70;;;2.30;;
30380;SDS011;17169;50.966;11.038;2023-05-10T01:08:32;5.88;;;2.20;;
30380;SDS011;17169;50.966;11.038;2023-05-10T01:11:36;4.82;;;2.45;;
30380;SDS011;17169;50.966;11.038;2023-05-10T01:17:43;11.35;;;2.63;;
30380;SDS011;17169;50.966;11.038;2023-05-10T01:20:46;5.25;;;2.22;;
30380;SDS011;17169;50.966;11.038;2023-05-10T01:24:06;4.82;;;2.35;;
30380;SDS011;17169;50.966;11.038;2023-05-10T01:27:23;5.07;;;2.60;;
30380;SDS011;17169;50.966;11.038;2023-05-10T01:34:07;7.78;;;2.67;;
30380;SDS011;17169;50.966;11.038;2023-05-10T01:37:13;4.45;;;2.53;;
30380;SDS011;17169;50.966;11.038;2023-05-10T01:40:21;6.03;;;2.28;;
30380;SDS011;17169;50.966;11.038;2023-05-10T01:43:28;4.28;;;2.17;;
30380;SDS011;17169;50.966;11.038;2023-05-10T01:46:39;5.40;;;2.53;;
30380;SDS011;17169;50.966;11.038;2023-05-10T01:49:45;6.30;;;2.35;;
30380;SDS011;17169;50.966;11.038;2023-05-10T01:52:53;7.13;;;2.60;;
30380;SDS011;17169;50.966;11.038;2023-05-10T01:55:57;9.10;;;2.78;;
30380;SDS011;17169;50.966;11.038;2023-05-10T01:59:03;5.85;;;2.65;;
30380;SDS011;17169;50.966;11.038;2023-05-10T02:02:10;6.03;;;2.15;;
30380;SDS011;17169;50.966;11.038;2023-05-10T02:05:16;4.20;;;2.45;;
30380;SDS011;17169;50.966;11.038;2023-05-10T02:08:19;4.07;;;2.45;;
30380;SDS011;17169;50.966;11.038;2023-05-10T02:11:23;6.88;;;2.10;;
30380;SDS011;17169;50.966;11.038;2023-05-10T02:14:28;4.75;;;2.50;;
30380;SDS011;17169;50.966;11.038;2023-05-10T02:17:32;4.18;;;2.30;;
30380;SDS011;17169;50.966;11.038;2023-05-10T02:20:37;5.93;;;2.72;;
30380;SDS011;17169;50.966;11.038;2023-05-10T02:23:40;4.00;;;2.22;;
30380;SDS011;17169;50.966;11.038;2023-05-10T02:26:45;6.70;;;2.60;;
30380;SDS011;17169;50.966;11.038;2023-05-10T02:29:49;9.20;;;2.53;;
30380;SDS011;17169;50.966;11.038;2023-05-10T02:32:52;9.18;;;2.60;;
30380;SDS011;17169;50.966;11.038;2023-05-10T02:35:57;4.72;;;2.22;;
30380;SDS011;17169;50.966;11.038;2023-05-10T02:39:00;4.93;;;2.50;;
30380;SDS011;17169;50.966;11.038;2023-05-10T02:42:04;6.97;;;2.55;;
30380;SDS011;17169;50.966;11.038;2023-05-10T02:45:07;6.88;;;2.67;;
30380;SDS011;17169;50.966;11.038;2023-05-10T02:48:12;5.55;;;2.35;;
30380;SDS011;17169;50.966;11.038;2023-05-10T02:51:16;8.93;;;3.60;;
30380;SDS011;17169;50.966;11.038;2023-05-10T02:54:23;6.00;;;3.15;;
30380;SDS011;17169;50.966;11.038;2023-05-10T02:57:30;12.75;;;2.72;;
30380;SDS011;17169;50.966;11.038;2023-05-10T03:00:35;4.40;;;2.78;;
30380;SDS011;17169;50.966;11.038;2023-05-10T03:03:37;7.68;;;2.53;;
30380;SDS011;17169;50.966;11.038;2023-05-10T03:06:41;4.00;;;2.70;;
30380;SDS011;17169;50.966;11.038;2023-05-10T03:09:44;6.35;;;2.45;;
30380;SDS011;17169;50.966;11.038;2023-05-10T03:12:51;4.72;;;2.22;;
30380;SDS011;17169;50.966;11.038;2023-05-10T03:16:05;6.05;;;2.58;;
30380;SDS011;17169;50.966;11.038;2023-05-10T03:19:11;11.65;;;2.85;;
30380;SDS011;17169;50.966;11.038;2023-05-10T03:22:21;4.65;;;2.78;;
30380;SDS011;17169;50.966;11.038;2023-05-10T03:25:26;6.10;;;2.60;;
30380;SDS011;17169;50.966;11.038;2023-05-10T03:28:31;7.38;;;3.22;;
30380;SDS011;17169;50.966;11.038;2023-05-10T03:31:35;6.63;;;3.00;;
30380;SDS011;17169;50.966;11.038;2023-05-10T03:34:41;6.35;;;2.95;;
30380;SDS011;17169;50.966;11.038;2023-05-10T03:37:45;5.10;;;2.83;;
30380;SDS011;17169;50.966;11.038;2023-05-10T03:40:48;10.23;;;2.83;;
30380;SDS011;17169;50.966;11.038;2023-05-10T03:43:50;7.00;;;2.95;;
30380;SDS011;17169;50.966;11.038;2023-05-10T03:46:53;7.65;;;3.22;;
30380;SDS011;17169;50.966;11.038;2023-05-10T03:49:55;4.75;;;3.03;;
30380;SDS011;17169;50.966;11.038;2023-05-10T03:52:59;8.25;;;3.20;;
30380;SDS011;17169;50.966;11.038;2023-05-10T03:56:02;5.93;;;3.47;;
30380;SDS011;17169;50.966;11.038;2023-05-10T03:59:05;5.18;;;3.53;;
30380;SDS011;17169;50.966;11.038;2023-05-10T04:02:09;6.07;;;3.78;;
30380;SDS011;17169;50.966;11.038;2023-05-10T04:05:11;10.80;;;3.22;;
30380;SDS011;17169;50.966;11.038;2023-05-10T04:08:15;8.88;;;4.05;;
30380;SDS011;17169;50.966;11.038;2023-05-10T04:11:18;6.50;;;4.60;;
30380;SDS011;17169;50.966;11.038;2023-05-10T04:14:22;6.57;;;3.45;;
30380;SDS011;17169;50.966;11.038;2023-05-10T04:17:25;7.60;;;3.47;;
30380;SDS011;17169;50.966;11.038;2023-05-10T04:20:27;6.63;;;3.67;;
30380;SDS011;17169;50.966;11.038;2023-05-10T04:23:31;8.52;;;3.55;;
30380;SDS011;17169;50.966;11.038;2023-05-10T04:26:33;6.03;;;3.70;;
30380;SDS011;17169;50.966;11.038;2023-05-10T04:29:36;6.95;;;3.78;;
30380;SDS011;17169;50.966;11.038;2023-05-10T04:32:38;6.35;;;3.67;;
30380;SDS011;17169;50.966;11.038;2023-05-10T04:35:41;9.18;;;4.32;;
30380;SDS011;17169;50.966;11.038;2023-05-10T04:38:46;11.20;;;4.07;;
30380;SDS011;17169;50.966;11.038;2023-05-10T04:41:48;5.70;;;3.90;;
30380;SDS011;17169;50.966;11.038;2023-05-10T04:44:51;6.72;;;3.85;;
30380;SDS011;17169;50.966;11.038;2023-05-10T04:47:53;7.53;;;4.30;;
30380;SDS011;17169;50.966;11.038;2023-05-10T04:50:56;7.35;;;4.03;;
30380;SDS011;17169;50.966;11.038;2023-05-10T04:53:59;8.52;;;4.00;;
30380;SDS011;17169;50.966;11.038;2023-05-10T04:57:02;7.47;;;4.72;;
30380;SDS011;17169;50.966;11.038;2023-05-10T05:00:05;10.05;;;4.22;;
30380;SDS011;17169;50.966;11.038;2023-05-10T05:03:08;8.25;;;4.57;;
30380;SDS011;17169;50.966;11.038;2023-05-10T05:06:11;8.82;;;4.63;;
30380;SDS011;17169;50.966;11.038;2023-05-10T05:09:15;6.80;;;4.38;;
30380;SDS011;17169;50.966;11.038;2023-05-10T05:12:17;12.00;;;4.45;;
30380;SDS011;17169;50.966;11.038;2023-05-10T05:15:19;8.77;;;4.55;;
30380;SDS011;17169;50.966;11.038;2023-05-10T05:18:22;5.95;;;4.15;;
30380;SDS011;17169;50.966;11.038;2023-05-10T05:21:24;8.63;;;4.32;;
30380;SDS011;17169;50.966;11.038;2023-05-10T05:24:29;7.45;;;4.20;;
30380;SDS011;17169;50.966;11.038;2023-05-10T05:27:36;9.90;;;4.75;;
30380;SDS011;17169;50.966;11.038;2023-05-10T05:30:38;6.50;;;4.20;;
30380;SDS011;17169;50.966;11.038;2023-05-10T05:33:41;6.85;;;4.32;;
30380;SDS011;17169;50.966;11.038;2023-05-10T05:36:43;7.70;;;4.45;;
30380;SDS011;17169;50.966;11.038;2023-05-10T05:39:47;10.27;;;4.35;;
30380;SDS011;17169;50.966;11.038;2023-05-10T05:42:49;7.75;;;3.95;;
30380;SDS011;17169;50.966;11.038;2023-05-10T05:45:52;8.07;;;4.07;;
30380;SDS011;17169;50.966;11.038;2023-05-10T05:48:55;6.75;;;3.97;;
30380;SDS011;17169;50.966;11.038;2023-05-10T05:51:58;11.05;;;4.20;;
30380;SDS011;17169;50.966;11.038;2023-05-10T05:55:03;6.88;;;3.97;;
30380;SDS011;17169;50.966;11.038;2023-05-10T05:58:06;5.80;;;4.27;;
30380;SDS011;17169;50.966;11.038;2023-05-10T06:01:08;5.40;;;3.42;;
30380;SDS011;17169;50.966;11.038;2023-05-10T06:04:10;5.28;;;3.08;;
30380;SDS011;17169;50.966;11.038;2023-05-10T06:07:13;4.78;;;2.47;;
30380;SDS011;17169;50.966;11.038;2023-05-10T06:10:17;7.82;;;3.75;;
30380;SDS011;17169;50.966;11.038;2023-05-10T06:13:19;3.55;;;2.35;;
30380;SDS011;17169;50.966;11.038;2023-05-10T06:16:22;6.38;;;2.42;;
30380;SDS011;17169;50.966;11.038;2023-05-10T06:19:24;5.03;;;2.90;;
30380;SDS011;17169;50.966;11.038;2023-05-10T06:22:27;7.38;;;2.22;;
30380;SDS011;17169;50.966;11.038;2023-05-10T06:25:31;3.88;;;2.05;;
30380;SDS011;17169;50.966;11.038;2023-05-10T06:28:33;7.57;;;3.65;;
30380;SDS011;17169;50.966;11.038;2023-05-10T06:31:35;6.63;;;2.85;;
30380;SDS011;17169;50.966;11.038;2023-05-10T06:34:38;3.85;;;2.20;;
30380;SDS011;17169;50.966;11.038;2023-05-10T06:37:40;4.15;;;2.13;;
30380;SDS011;17169;50.966;11.038;2023-05-10T06:40:44;8.73;;;2.20;;
30380;SDS011;17169;50.966;11.038;2023-05-10T06:43:46;4.65;;;2.38;;
30380;SDS011;17169;50.966;11.038;2023-05-10T06:46:49;5.93;;;2.58;;
30380;SDS011;17169;50.966;11.038;2023-05-10T06:49:53;3.15;;;1.80;;
30380;SDS011;17169;50.966;11.038;2023-05-10T06:52:56;2.65;;;1.50;;
30380;SDS011;17169;50.966;11.038;2023-05-10T06:56:00;4.18;;;1.80;;
30380;SDS011;17169;50.966;11.038;2023-05-10T06:59:03;2.30;;;1.60;;
30380;SDS011;17169;50.966;11.038;2023-05-10T07:02:06;3.05;;;1.90;;
30380;SDS011;17169;50.966;11.038;2023-05-10T07:05:08;3.70;;;1.83;;
30380;SDS011;17169;50.966;11.038;2023-05-10T07:08:11;3.70;;;1.77;;
30380;SDS011;17169;50.966;11.038;2023-05-10T07:11:15;4.00;;;1.30;;
30380;SDS011;17169;50.966;11.038;2023-05-10T07:14:17;3.58;;;2.42;;
30380;SDS011;17169;50.966;11.038;2023-05-10T07:17:20;3.90;;;1.80;;
30380;SDS011;17169;50.966;11.038;2023-05-10T07:20:22;2.25;;;1.50;;
30380;SDS011;17169;50.966;11.038;2023-05-10T07:23:24;4.13;;;1.20;;
30380;SDS011;17169;50.966;11.038;2023-05-10T07:26:28;1.63;;;1.23;;
30380;SDS011;17169;50.966;11.038;2023-05-10T07:29:31;1.80;;;1.20;;
30380;SDS011;17169;50.966;11.038;2023-05-10T07:32:33;1.00;;;0.80;;
30380;SDS011;17169;50.966;11.038;2023-05-10T07:35:35;1.33;;;0.80;;
30380;SDS011;17169;50.966;11.038;2023-05-10T07:38:38;1.45;;;1.00;;
30380;SDS011;17169;50.966;11.038;2023-05-10T07:41:42;2.55;;;1.10;;
30380;SDS011;17169;50.966;11.038;2023-05-10T07:44:44;1.55;;;1.00;;
30380;SDS011;17169;50.966;11.038;2023-05-10T07:47:47;1.10;;;0.90;;
30380;SDS011;17169;50.966;11.038;2023-05-10T07:50:50;0.93;;;0.70;;
30380;SDS011;17169;50.966;11.038;2023-05-10T07:53:52;1.08;;;0.70;;
30380;SDS011;17169;50.966;11.038;2023-05-10T07:56:56;1.40;;;0.70;;
30380;SDS011;17169;50.966;11.038;2023-05-10T08:03:02;2.03;;;0.77;;
30380;SDS011;17169;50.966;11.038;2023-05-10T08:06:05;1.30;;;0.80;;
30380;SDS011;17169;50.966;11.038;2023-05-10T08:09:08;1.70;;;0.80;;
30380;SDS011;17169;50.966;11.038;2023-05-10T08:12:12;1.92;;;0.70;;
30380;SDS011;17169;50.966;11.038;2023-05-10T08:15:15;4.10;;;0.60;;
30380;SDS011;17169;50.966;11.038;2023-05-10T08:18:17;1.20;;;0.50;;
30380;SDS011;17169;50.966;11.038;2023-05-10T08:21:20;1.80;;;0.45;;
30380;SDS011;17169;50.966;11.038;2023-05-10T08:24:22;0.77;;;0.50;;
30380;SDS011;17169;50.966;11.038;2023-05-10T08:27:26;1.65;;;0.60;;
30380;SDS011;17169;50.966;11.038;2023-05-10T08:30:28;0.50;;;0.50;;
30380;SDS011;17169;50.966;11.038;2023-05-10T08:33:31;1.85;;;0.40;;
30380;SDS011;17169;50.966;11.038;2023-05-10T08:36:33;1.45;;;0.40;;
30380;SDS011;17169;50.966;11.038;2023-05-10T08:39:36;0.40;;;0.40;;
30380;SDS011;17169;50.966;11.038;2023-05-10T08:42:42;2.97;;;0.43;;
30380;SDS011;17169;50.966;11.038;2023-05-10T08:45:49;0.88;;;0.50;;
30380;SDS011;17169;50.966;11.038;2023-05-10T08:48:54;4.75;;;0.40;;
30380;SDS011;17169;50.966;11.038;2023-05-10T08:51:57;4.70;;;0.43;;
30380;SDS011;17169;50.966;11.038;2023-05-10T08:55:01;0.40;;;0.40;;
30380;SDS011;17169;50.966;11.038;2023-05-10T08:58:05;0.70;;;0.50;;
30380;SDS011;17169;50.966;11.038;2023-05-10T09:01:08;0.38;;;0.38;;
30380;SDS011;17169;50.966;11.038;2023-05-10T09:04:12;0.98;;;0.50;;
30380;SDS011;17169;50.966;11.038;2023-05-10T09:07:14;1.00;;;0.50;;
30380;SDS011;17169;50.966;11.038;2023-05-10T09:10:17;0.57;;;0.40;;
30380;SDS011;17169;50.966;11.038;2023-05-10T09:13:22;0.50;;;0.40;;
30380;SDS011;17169;50.966;11.038;2023-05-10T09:16:25;1.30;;;0.52;;
30380;SDS011;17169;50.966;11.038;2023-05-10T09:19:27;3.65;;;0.57;;
30380;SDS011;17169;50.966;11.038;2023-05-10T09:22:30;1.42;;;0.50;;
30380;SDS011;17169;50.966;11.038;2023-05-10T09:25:33;6.10;;;0.50;;
30380;SDS011;17169;50.966;11.038;2023-05-10T09:28:49;0.57;;;0.50;;
30380;SDS011;17169;50.966;11.038;2023-05-10T09:31:53;1.50;;;0.52;;
30380;SDS011;17169;50.966;11.038;2023-05-10T09:34:56;1.48;;;0.50;;
30380;SDS011;17169;50.966;11.038;2023-05-10T09:37:59;0.90;;;0.65;;
30380;SDS011;17169;50.966;11.038;2023-05-10T09:41:04;0.63;;;0.50;;
30380;SDS011;17169;50.966;11.038;2023-05-10T09:44:07;0.95;;;0.50;;
30380;SDS011;17169;50.966;11.038;2023-05-10T09:47:10;0.40;;;0.40;;
30380;SDS011;17169;50.966;11.038;2023-05-10T09:50:18;0.75;;;0.50;;
30380;SDS011;17169;50.966;11.038;2023-05-10T09:53:21;0.63;;;0.50;;
30380;SDS011;17169;50.966;11.038;2023-05-10T09:56:33;0.63;;;0.40;;
30380;SDS011;17169;50.966;11.038;2023-05-10T09:59:42;0.82;;;0.50;;
30380;SDS011;17169;50.966;11.038;2023-05-10T10:02:45;0.50;;;0.50;;
30380;SDS011;17169;50.966;11.038;2023-05-10T10:05:49;0.43;;;0.40;;
30380;SDS011;17169;50.966;11.038;2023-05-10T10:08:51;1.38;;;0.50;;
30380;SDS011;17169;50.966;11.038;2023-05-10T10:11:56;0.93;;;0.70;;
30380;SDS011;17169;50.966;11.038;2023-05-10T10:15:00;1.75;;;0.70;;
30380;SDS011;17169;50.966;11.038;2023-05-10T10:18:03;2.35;;;0.60;;
30380;SDS011;17169;50.966;11.038;2023-05-10T10:21:07;5.78;;;0.80;;
30380;SDS011;17169;50.966;11.038;2023-05-10T10:24:09;5.60;;;0.60;;
30380;SDS011;17169;50.966;11.038;2023-05-10T10:27:15;0.60;;;0.50;;
30380;SDS011;17169;50.966;11.038;2023-05-10T10:30:28;1.13;;;0.40;;
30380;SDS011;17169;50.966;11.038;2023-05-10T10:33:38;0.55;;;0.52;;
30380;SDS011;17169;50.966;11.038;2023-05-10T10:36:50;1.17;;;0.63;;
30380;SDS011;17169;50.966;11.038;2023-05-10T10:39:53;1.05;;;0.52;;
30380;SDS011;17169;50.966;11.038;2023-05-10T10:42:58;0.95;;;0.50;;
30380;SDS011;17169;50.966;11.038;2023-05-10T10:46:25;2.90;;;1.02;;
30380;SDS011;17169;50.966;11.038;2023-05-10T10:49:27;2.67;;;0.70;;
30380;SDS011;17169;50.966;11.038;2023-05-10T10:52:33;1.02;;;0.60;;
30380;SDS011;17169;50.966;11.038;2023-05-10T10:55:37;1.63;;;0.70;;
30380;SDS011;17169;50.966;11.038;2023-05-10T10:58:49;1.33;;;0.75;;
30380;SDS011;17169;50.966;11.038;2023-05-10T11:01:54;0.75;;;0.60;;
30380;SDS011;17169;50.966;11.038;2023-05-10T11:04:56;1.02;;;0.68;;
30380;SDS011;17169;50.966;11.038;2023-05-10T11:07:59;1.95;;;0.80;;
30380;SDS011;17169;50.966;11.038;2023-05-10T11:11:07;4.03;;;0.80;;
30380;SDS011;17169;50.966;11.038;2023-05-10T11:14:10;2.55;;;0.50;;
30380;SDS011;17169;50.966;11.038;2023-05-10T11:17:23;0.73;;;0.50;;
30380;SDS011;17169;50.966;11.038;2023-05-10T11:20:29;0.75;;;0.45;;
30380;SDS011;17169;50.966;11.038;2023-05-10T11:23:50;3.47;;;0.90;;
30380;SDS011;17169;50.966;11.038;2023-05-10T11:29:58;1.00;;;0.75;;
30380;SDS011;17169;50.966;11.038;2023-05-10T11:33:02;2.20;;;0.73;;
30380;SDS011;17169;50.966;11.038;2023-05-10T11:36:05;3.10;;;1.10;;
30380;SDS011;17169;50.966;11.038;2023-05-10T11:39:12;2.30;;;0.80;;
30380;SDS011;17169;50.966;11.038;2023-05-10T11:42:14;1.95;;;1.00;;
30380;SDS011;17169;50.966;11.038;2023-05-10T11:45:17;1.55;;;0.80;;
30380;SDS011;17169;50.966;11.038;2023-05-10T11:48:20;2.28;;;0.90;;
30380;SDS011;17169;50.966;11.038;2023-05-10T11:51:24;1.92;;;0.90;;
30380;SDS011;17169;50.966;11.038;2023-05-10T11:54:27;1.65;;;0.73;;
30380;SDS011;17169;50.966;11.038;2023-05-10T11:57:29;3.53;;;1.00;;
30380;SDS011;17169;50.966;11.038;2023-05-10T12:00:32;2.67;;;1.30;;
30380;SDS011;17169;50.966;11.038;2023-05-10T12:03:36;2.70;;;0.82;;
30380;SDS011;17169;50.966;11.038;2023-05-10T12:06:40;2.50;;;1.33;;
30380;SDS011;17169;50.966;11.038;2023-05-10T12:09:43;1.15;;;0.68;;
30380;SDS011;17169;50.966;11.038;2023-05-10T12:12:46;2.80;;;1.02;;
30380;SDS011;17169;50.966;11.038;2023-05-10T12:15:49;0.90;;;0.60;;
30380;SDS011;17169;50.966;11.038;2023-05-10T12:18:54;5.85;;;0.93;;
30380;SDS011;17169;50.966;11.038;2023-05-10T12:21:58;1.60;;;0.70;;
30380;SDS011;17169;50.966;11.038;2023-05-10T12:25:00;3.10;;;0.80;;
30380;SDS011;17169;50.966;11.038;2023-05-10T12:28:04;1.00;;;0.70;;
30380;SDS011;17169;50.966;11.038;2023-05-10T12:34:12;1.38;;;0.93;;
30380;SDS011;17169;50.966;11.038;2023-05-10T12:37:27;1.63;;;0.68;;
30380;SDS011;17169;50.966;11.038;2023-05-10T12:40:29;1.85;;;0.60;;
30380;SDS011;17169;50.966;11.038;2023-05-10T12:43:32;2.53;;;0.80;;
30380;SDS011;17169;50.966;11.038;2023-05-10T12:46:35;3.13;;;0.85;;
30380;SDS011;17169;50.966;11.038;2023-05-10T12:49:39;0.75;;;0.55;;
30380;SDS011;17169;50.966;11.038;2023-05-10T12:52:41;2.45;;;1.42;;
30380;SDS011;17169;50.966;11.038;2023-05-10T12:55:44;1.90;;;0.80;;
30380;SDS011;17169;50.966;11.038;2023-05-10T12:58:46;1.73;;;0.80;;
30380;SDS011;17169;50.966;11.038;2023-05-10T13:01:49;1.95;;;0.80;;
30380;SDS011;17169;50.966;11.038;2023-05-10T13:04:52;2.45;;;0.75;;
30380;SDS011;17169;50.966;11.038;2023-05-10T13:07:55;1.80;;;0.68;;
30380;SDS011;17169;50.966;11.038;2023-05-10T13:10:57;0.82;;;0.60;;
30380;SDS011;17169;50.966;11.038;2023-05-10T13:14:00;1.50;;;0.55;;
30380;SDS011;17169;50.966;11.038;2023-05-10T13:17:03;5.25;;;1.00;;
30380;SDS011;17169;50.966;11.038;2023-05-10T13:20:07;3.83;;;0.60;;
30380;SDS011;17169;50.966;11.038;2023-05-10T13:23:11;1.80;;;0.73;;
30380;SDS011;17169;50.966;11.038;2023-05-10T13:26:13;1.15;;;0.50;;
30380;SDS011;17169;50.966;11.038;2023-05-10T13:29:15;2.47;;;0.50;;
30380;SDS011;17169;50.966;11.038;2023-05-10T13:32:18;2.40;;;0.60;;
30380;SDS011;17169;50.966;11.038;2023-05-10T13:35:22;4.90;;;0.60;;
30380;SDS011;17169;50.966;11.038;2023-05-10T13:38:25;3.15;;;0.47;;
30380;SDS011;17169;50.966;11.038;2023-05-10T13:41:27;3.05;;;0.70;;
30380;SDS011;17169;50.966;11.038;2023-05-10T13:44:29;1.35;;;0.70;;
30380;SDS011;17169;50.966;11.038;2023-05-10T13:47:34;2.90;;;0.60;;
30380;SDS011;17169;50.966;11.038;2023-05-10T13:50:38;6.60;;;1.85;;
30380;SDS011;17169;50.966;11.038;2023-05-10T13:53:40;3.35;;;0.77;;
30380;SDS011;17169;50.966;11.038;2023-05-10T13:56:43;2.45;;;0.68;;
30380;SDS011;17169;50.966;11.038;2023-05-10T13:59:45;0.95;;;0.40;;
30380;SDS011;17169;50.966;11.038;2023-05-10T14:02:48;1.73;;;0.70;;
30380;SDS011;17169;50.966;11.038;2023-05-10T14:05:52;2.10;;;0.75;;
30380;SDS011;17169;50.966;11.038;2023-05-10T14:08:54;0.52;;;0.40;;
30380;SDS011;17169;50.966;11.038;2023-05-10T14:11:57;2.85;;;0.63;;
30380;SDS011;17169;50.966;11.038;2023-05-10T14:14:59;1.25;;;0.65;;
30380;SDS011;17169;50.966;11.038;2023-05-10T14:18:02;3.05;;;0.50;;
30380;SDS011;17169;50.966;11.038;2023-05-10T14:21:06;1.52;;;0.60;;
30380;SDS011;17169;50.966;11.038;2023-05-10T14:24:08;0.50;;;0.40;;
30380;SDS011;17169;50.966;11.038;2023-05-10T14:27:11;1.38;;;0.63;;
30380;SDS011;17169;50.966;11.038;2023-05-10T14:30:13;2.25;;;0.70;;
30380;SDS011;17169;50.966;11.038;2023-05-10T14:33:16;3.42;;;0.80;;
30380;SDS011;17169;50.966;11.038;2023-05-10T14:36:20;2.95;;;0.73;;
30380;SDS011;17169;50.966;11.038;2023-05-10T14:39:23;1.73;;;0.60;;
30380;SDS011;17169;50.966;11.038;2023-05-10T14:42:25;1.17;;;0.60;;
30380;SDS011;17169;50.966;11.038;2023-05-10T14:45:27;1.08;;;0.50;;
30380;SDS011;17169;50.966;11.038;2023-05-10T14:48:30;2.13;;;0.50;;
30380;SDS011;17169;50.966;11.038;2023-05-10T14:51:33;3.45;;;0.60;;
30380;SDS011;17169;50.966;11.038;2023-05-10T14:54:37;0.52;;;0.50;;
30380;SDS011;17169;50.966;11.038;2023-05-10T14:57:39;2.75;;;0.85;;
30380;SDS011;17169;50.966;11.038;2023-05-10T15:00:42;0.65;;;0.55;;
30380;SDS011;17169;50.966;11.038;2023-05-10T15:03:45;0.88;;;0.60;;
30380;SDS011;17169;50.966;11.038;2023-05-10T15:06:48;1.42;;;0.70;;
30380;SDS011;17169;50.966;11.038;2023-05-10T15:09:51;1.35;;;0.75;;
30380;SDS011;17169;50.966;11.038;2023-05-10T15:12:53;0.45;;;0.40;;
30380;SDS011;17169;50.966;11.038;2023-05-10T15:15:55;1.10;;;0.57;;
30380;SDS011;17169;50.966;11.038;2023-05-10T15:18:58;1.52;;;0.75;;
30380;SDS011;17169;50.966;11.038;2023-05-10T15:22:03;4.07;;;0.50;;
30380;SDS011;17169;50.966;11.038;2023-05-10T15:25:06;2.53;;;1.05;;
30380;SDS011;17169;50.966;11.038;2023-05-10T15:28:10;1.70;;;0.50;;
30380;SDS011;17169;50.966;11.038;2023-05-10T15:31:12;1.90;;;0.47;;
30380;SDS011;17169;50.966;11.038;2023-05-10T15:34:15;2.60;;;0.50;;
30380;SDS011;17169;50.966;11.038;2023-05-10T15:37:19;4.70;;;0.68;;
30380;SDS011;17169;50.966;11.038;2023-05-10T15:40:23;1.60;;;0.60;;
30380;SDS011;17169;50.966;11.038;2023-05-10T15:43:26;0.60;;;0.40;;
30380;SDS011;17169;50.966;11.038;2023-05-10T15:46:28;1.10;;;0.60;;
30380;SDS011;17169;50.966;11.038;2023-05-10T15:49:31;3.13;;;0.57;;
30380;SDS011;17169;50.966;11.038;2023-05-10T15:52:35;0.98;;;0.60;;
30380;SDS011;17169;50.966;11.038;2023-05-10T15:55:37;2.22;;;0.50;;
30380;SDS011;17169;50.966;11.038;2023-05-10T15:58:40;1.70;;;0.60;;
30380;SDS011;17169;50.966;11.038;2023-05-10T16:01:43;2.10;;;0.60;;
30380;SDS011;17169;50.966;11.038;2023-05-10T16:04:45;1.38;;;0.85;;
30380;SDS011;17169;50.966;11.038;2023-05-10T16:07:49;0.98;;;0.52;;
30380;SDS011;17169;50.966;11.038;2023-05-10T16:10:52;1.85;;;0.50;;
30380;SDS011;17169;50.966;11.038;2023-05-10T16:13:54;0.95;;;0.60;;
30380;SDS011;17169;50.966;11.038;2023-05-10T16:16:56;2.88;;;0.80;;
30380;SDS011;17169;50.966;11.038;2023-05-10T16:19:59;0.98;;;0.55;;
30380;SDS011;17169;50.966;11.038;2023-05-10T16:23:03;1.23;;;0.60;;
30380;SDS011;17169;50.966;11.038;2023-05-10T16:26:07;2.83;;;0.90;;
30380;SDS011;17169;50.966;11.038;2023-05-10T16:29:09;3.00;;;0.80;;
30380;SDS011;17169;50.966;11.038;2023-05-10T16:32:12;1.88;;;0.98;;
30380;SDS011;17169;50.966;11.038;2023-05-10T16:35:14;1.33;;;0.60;;
30380;SDS011;17169;50.966;11.038;2023-05-10T16:38:18;1.20;;;0.43;;
30380;SDS011;17169;50.966;11.038;2023-05-10T16:41:21;1.50;;;1.03;;
30380;SDS011;17169;50.966;11.038;2023-05-10T16:44:23;3.08;;;0.50;;
30380;SDS011;17169;50.966;11.038;2023-05-10T16:47:26;0.73;;;0.50;;
30380;SDS011;17169;50.966;11.038;2023-05-10T16:50:28;0.63;;;0.50;;
30380;SDS011;17169;50.966;11.038;2023-05-10T16:53:32;0.47;;;0.32;;
30380;SDS011;17169;50.966;11.038;2023-05-10T16:56:34;0.63;;;0.50;;
30380;SDS011;17169;50.966;11.038;2023-05-10T16:59:37;0.30;;;0.30;;
30380;SDS011;17169;50.966;11.038;2023-05-10T17:02:39;1.48;;;0.45;;
30380;SDS011;17169;50.966;11.038;2023-05-10T17:05:41;1.08;;;0.50;;
30380;SDS011;17169;50.966;11.038;2023-05-10T17:08:45;1.85;;;0.63;;
30380;SDS011;17169;50.966;11.038;2023-05-10T17:11:47;2.05;;;0.60;;
30380;SDS011;17169;50.966;11.038;2023-05-10T17:14:50;5.18;;;0.75;;
30380;SDS011;17169;50.966;11.038;2023-05-10T17:17:52;1.05;;;0.55;;
30380;SDS011;17169;50.966;11.038;2023-05-10T17:20:55;1.60;;;0.65;;
30380;SDS011;17169;50.966;11.038;2023-05-10T17:23:59;4.05;;;1.00;;
30380;SDS011;17169;50.966;11.038;2023-05-10T17:27:01;8.00;;;1.00;;
30380;SDS011;17169;50.966;11.038;2023-05-10T17:30:04;2.80;;;1.08;;
30380;SDS011;17169;50.966;11.038;2023-05-10T17:33:07;1.60;;;0.90;;
30380;SDS011;17169;50.966;11.038;2023-05-10T17:36:10;2.15;;;0.77;;
30380;SDS011;17169;50.966;11.038;2023-05-10T17:39:13;2.90;;;0.88;;
30380;SDS011;17169;50.966;11.038;2023-05-10T17:42:16;1.27;;;0.73;;
30380;SDS011;17169;50.966;11.038;2023-05-10T17:45:19;1.13;;;0.80;;
30380;SDS011;17169;50.966;11.038;2023-05-10T17:48:21;3.88;;;1.10;;
30380;SDS011;17169;50.966;11.038;2023-05-10T17:51:24;1.30;;;0.80;;
30380;SDS011;17169;50.966;11.038;2023-05-10T17:54:28;2.38;;;0.80;;
30380;SDS011;17169;50.966;11.038;2023-05-10T17:57:30;2.22;;;1.00;;
30380;SDS011;17169;50.966;11.038;2023-05-10T18:00:32;3.00;;;1.08;;
30380;SDS011;17169;50.966;11.038;2023-05-10T18:03:35;2.72;;;1.00;;
30380;SDS011;17169;50.966;11.038;2023-05-10T18:06:37;3.85;;;1.40;;
30380;SDS011;17169;50.966;11.038;2023-05-10T18:09:42;3.30;;;1.00;;
30380;SDS011;17169;50.966;11.038;2023-05-10T18:12:44;2.25;;;1.00;;
30380;SDS011;17169;50.966;11.038;2023-05-10T18:15:47;2.75;;;1.10;;
30380;SDS011;17169;50.966;11.038;2023-05-10T18:18:49;2.92;;;1.40;;
30380;SDS011;17169;50.966;11.038;2023-05-10T18:21:51;5.10;;;1.02;;
30380;SDS011;17169;50.966;11.038;2023-05-10T18:24:55;3.70;;;1.45;;